Linn, Missouri
Current Conditions -  °F | °C
As of 6:53 PM on Monday 24 Nov 2014 (Local Time) from KJEF Reporting Station
Broken Clouds Broken Clouds  
Wind Chill: 30°   Ceiling: 4600
Heat Index: 37°   Visibility: 10mi
Dew Point: 25°   Wind: 9mph
Humidity: 62%   Direction: 280°W
Pressure: 29.96"   Gusts: 18mph
Location:  38.49°N, 91.85°W
Report Text: KJEF 250053Z 28008G16KT 10SM BKN046 03/M04 A2996 RMK AO2 SLP137 T00281039
Loading
Personal Weather Stations






























Interactive Weather Map New forecast layout! Learn more

10-Day Weather Forecast

Advertisements
Track Severe Weather on mobile